Terminal Aerodrome Forecast
Issued by NWS

Home | Current Version | Previous Version | Text Only | Print | Product List | Glossary On
Versions: 1 2 3 4 5 6 7 8 9 10 11 12 13 14 15 16 17 18 19 20 21 22 23 24
000
FTUS43 KGRB 301700
TAFAUW
TAF
KAUW 301727Z 3018/3118 32006KT P6SM VCSH SCT015 BKN050
      TEMPO 3018/3021 3SM SHRA BKN015
     FM302100 34006KT P6SM VCSH SCT015 BKN025
     FM310100 02003KT P6SM BKN025
     FM310600 VRB02KT 4SM BR SCT008 SCT025
      TEMPO 3108/3112 1SM BR BKN008 OVC025
     FM311300 13005KT 5SM BR BKN012
     FM311600 15007KT P6SM SCT020=

USA.gov is the U.S. government's official web portal to all federal, state and local government web resources and services.